createdAt,value
2018-12-05T00:00:13.563Z,6.6
2018-12-05T00:01:13.572Z,0
2018-12-05T00:02:13.634Z,0
2018-12-05T00:03:13.576Z,0
2018-12-05T00:04:13.530Z,0
2018-12-05T00:05:13.567Z,0
2018-12-05T00:06:13.630Z,9.5
2018-12-05T00:07:13.648Z,12.4
2018-12-05T00:08:13.560Z,12.4
2018-12-05T00:09:13.732Z,12.4
2018-12-05T00:10:13.579Z,12.4
2018-12-05T00:11:13.583Z,15.4
2018-12-05T00:12:13.639Z,15.4
2018-12-05T00:13:13.560Z,15.4
2018-12-05T00:14:13.613Z,15.4
2018-12-05T00:15:13.526Z,15.4
2018-12-05T00:16:13.598Z,15.4
2018-12-05T00:17:13.529Z,12.4
2018-12-05T00:18:13.559Z,12.4
2018-12-05T00:19:13.527Z,12.4
2018-12-05T00:20:13.581Z,12.4
2018-12-05T00:21:13.527Z,15.4
2018-12-05T00:22:13.537Z,12.4
2018-12-05T00:23:13.584Z,12.4
2018-12-05T00:24:13.518Z,12.4
2018-12-05T00:25:13.604Z,15.4
2018-12-05T00:26:13.528Z,15.4
2018-12-05T00:27:13.532Z,15.4
2018-12-05T00:28:13.573Z,15.4
2018-12-05T00:29:13.535Z,15.4
2018-12-05T00:30:13.554Z,15.4
2018-12-05T00:31:13.550Z,15.4
2018-12-05T00:32:13.515Z,15.4
2018-12-05T00:33:13.569Z,15.4
2018-12-05T00:34:13.594Z,15.4
2018-12-05T00:35:13.507Z,15.4
2018-12-05T00:36:13.549Z,12.4
2018-12-05T00:37:13.537Z,12.4
2018-12-05T00:38:13.579Z,15.4
2018-12-05T00:39:13.563Z,15.4
2018-12-05T00:40:13.551Z,15.4
2018-12-05T00:41:13.550Z,15.4
2018-12-05T00:42:13.589Z,15.4
2018-12-05T00:43:13.604Z,15.4
2018-12-05T00:44:13.547Z,15.4
2018-12-05T00:45:13.646Z,9.5
2018-12-05T00:46:13.543Z,9.5
2018-12-05T00:47:13.582Z,12.4
2018-12-05T00:48:13.486Z,9.5
2018-12-05T00:49:13.512Z,9.5
2018-12-05T00:50:13.552Z,9.5
2018-12-05T00:51:13.615Z,9.5
2018-12-05T00:52:13.521Z,6.6
2018-12-05T00:53:13.501Z,6.6
2018-12-05T00:54:13.557Z,6.6
2018-12-05T00:55:13.596Z,0
2018-12-05T00:56:16.614Z,0
2018-12-05T00:57:17.038Z,0
2018-12-05T00:58:15.600Z,0
2018-12-05T00:59:15.366Z,0
2018-12-05T01:00:16.217Z,0
2018-12-05T01:01:15.937Z,0
2018-12-05T01:02:13.569Z,0
2018-12-05T01:03:13.523Z,0
2018-12-05T01:04:13.478Z,0
2018-12-05T01:05:13.599Z,0
2018-12-05T01:06:13.535Z,0
2018-12-05T01:07:13.586Z,0
2018-12-05T01:08:13.527Z,0
2018-12-05T01:09:13.543Z,0
2018-12-05T01:10:13.504Z,0
2018-12-05T01:11:13.588Z,0
2018-12-05T01:12:13.654Z,0
2018-12-05T01:13:13.565Z,0
2018-12-05T01:14:13.514Z,0
2018-12-05T01:15:13.513Z,1.8
2018-12-05T01:16:13.521Z,0
2018-12-05T01:17:13.626Z,0
2018-12-05T01:18:13.523Z,0
2018-12-05T01:19:13.538Z,0
2018-12-05T01:20:13.458Z,0
2018-12-05T01:21:13.521Z,0
2018-12-05T01:22:13.613Z,0
2018-12-05T01:23:13.512Z,0
2018-12-05T01:24:13.537Z,0
2018-12-05T01:25:13.499Z,0
2018-12-05T01:26:13.613Z,0
2018-12-05T01:27:13.541Z,0
2018-12-05T01:28:13.518Z,0
2018-12-05T01:29:13.547Z,0
2018-12-05T01:30:13.514Z,0
2018-12-05T01:31:13.500Z,0
2018-12-05T01:32:23.402Z,0
2018-12-05T01:33:13.485Z,0
2018-12-05T01:34:13.511Z,0
2018-12-05T01:35:13.534Z,0
2018-12-05T01:36:13.495Z,0
2018-12-05T01:37:13.567Z,3.9
2018-12-05T01:38:13.532Z,1.8
2018-12-05T01:39:13.515Z,0
2018-12-05T01:40:13.508Z,0
2018-12-05T01:41:13.550Z,0
2018-12-05T01:42:13.563Z,0
2018-12-05T01:43:13.489Z,0
2018-12-05T01:44:13.526Z,0
2018-12-05T01:45:13.504Z,0
2018-12-05T01:46:13.509Z,0
2018-12-05T01:47:13.544Z,0
2018-12-05T01:48:13.468Z,0
2018-12-05T01:49:13.505Z,0
2018-12-05T01:50:13.511Z,0
2018-12-05T01:51:13.495Z,0
2018-12-05T01:52:13.566Z,0
2018-12-05T01:53:13.502Z,0
2018-12-05T01:54:13.531Z,0
2018-12-05T01:55:13.530Z,0
2018-12-05T01:56:13.487Z,6.6
2018-12-05T01:57:13.573Z,9.5
2018-12-05T01:58:13.498Z,6.6
2018-12-05T01:59:13.583Z,6.6
2018-12-05T02:00:13.508Z,3.9
2018-12-05T02:01:13.498Z,1.8
2018-12-05T02:02:13.543Z,3.9
2018-12-05T02:03:13.523Z,3.9
2018-12-05T02:04:13.455Z,1.8
2018-12-05T02:05:13.540Z,1.8
2018-12-05T02:06:15.111Z,3.9
2018-12-05T02:07:13.495Z,9.5
2018-12-05T02:08:13.511Z,9.5
2018-12-05T02:09:13.444Z,9.5
2018-12-05T02:10:13.546Z,9.5
2018-12-05T02:11:13.603Z,9.5
2018-12-05T02:12:13.513Z,9.5
2018-12-05T02:13:13.506Z,6.6
2018-12-05T02:14:13.500Z,6.6
2018-12-05T02:15:13.540Z,3.9
2018-12-05T02:16:13.548Z,6.6
2018-12-05T02:18:14.482Z,3.9
2018-12-05T02:19:13.510Z,3.9
2018-12-05T02:20:13.518Z,3.9
2018-12-05T02:21:13.564Z,1.8
2018-12-05T02:22:13.497Z,1.8
2018-12-05T02:23:13.511Z,0
2018-12-05T02:24:13.512Z,0
2018-12-05T02:25:13.531Z,1.8
2018-12-05T02:26:13.476Z,0
2018-12-05T02:27:13.486Z,0
2018-12-05T02:28:13.480Z,1.8
2018-12-05T02:29:13.494Z,3.9
2018-12-05T02:30:13.579Z,1.8
2018-12-05T02:31:13.480Z,0
2018-12-05T02:32:13.629Z,1.8
2018-12-05T02:33:13.483Z,0
2018-12-05T02:34:13.473Z,0
2018-12-05T02:35:13.484Z,0
2018-12-05T02:36:13.425Z,0
2018-12-05T02:37:13.515Z,0
2018-12-05T02:38:13.504Z,0
2018-12-05T02:39:13.483Z,0
2018-12-05T02:40:13.525Z,0
2018-12-05T02:41:14.473Z,0
2018-12-05T02:42:13.467Z,0
2018-12-05T02:43:13.574Z,0
2018-12-05T02:44:13.481Z,0
2018-12-05T02:45:13.487Z,0
2018-12-05T02:46:13.535Z,0
2018-12-05T02:47:13.478Z,0
2018-12-05T02:48:13.431Z,0
2018-12-05T02:49:13.456Z,0
2018-12-05T02:50:13.447Z,0
2018-12-05T02:51:13.566Z,0
2018-12-05T02:52:13.512Z,0
2018-12-05T02:53:13.471Z,0
2018-12-05T02:54:13.479Z,0
2018-12-05T02:55:13.530Z,0
2018-12-05T02:56:13.544Z,0
2018-12-05T02:57:13.491Z,0
2018-12-05T02:58:13.505Z,6.6
2018-12-05T02:59:13.475Z,6.6
2018-12-05T03:00:13.470Z,6.6
2018-12-05T03:01:13.512Z,6.6
2018-12-05T03:02:13.488Z,1.8
2018-12-05T03:03:13.466Z,1.8
2018-12-05T03:04:13.522Z,1.8
2018-12-05T03:05:13.454Z,1.8
2018-12-05T03:06:13.487Z,3.9
2018-12-05T03:07:22.902Z,6.6
2018-12-05T03:08:13.525Z,6.6
2018-12-05T03:09:13.437Z,6.6
2018-12-05T03:10:13.470Z,6.6
2018-12-05T03:11:13.466Z,6.6
2018-12-05T03:12:13.476Z,6.6
2018-12-05T03:13:13.484Z,3.9
2018-12-05T03:14:13.424Z,3.9
2018-12-05T03:15:13.517Z,3.9
2018-12-05T03:16:13.478Z,6.6
2018-12-05T03:17:13.544Z,6.6
2018-12-05T03:18:13.488Z,6.6
2018-12-05T03:19:13.435Z,6.6
2018-12-05T03:20:13.433Z,9.5
2018-12-05T03:21:13.572Z,6.6
2018-12-05T03:22:13.540Z,9.5
2018-12-05T03:23:13.475Z,9.5
2018-12-05T03:24:13.466Z,9.5
2018-12-05T03:25:13.434Z,9.5
2018-12-05T03:26:13.420Z,9.5
2018-12-05T03:27:13.456Z,9.5
2018-12-05T03:28:13.472Z,9.5
2018-12-05T03:29:13.484Z,9.5
2018-12-05T03:30:13.469Z,9.5
2018-12-05T03:31:13.573Z,6.6
2018-12-05T03:32:13.561Z,6.6
2018-12-05T03:33:13.575Z,9.5
2018-12-05T03:34:13.442Z,6.6
2018-12-05T03:35:13.441Z,6.6
2018-12-05T03:36:13.422Z,6.6
2018-12-05T03:37:13.477Z,6.6
2018-12-05T03:38:13.496Z,6.6
2018-12-05T03:39:13.452Z,6.6
2018-12-05T03:40:13.427Z,6.6
2018-12-05T03:41:13.455Z,6.6
2018-12-05T03:42:13.480Z,6.6
2018-12-05T03:43:13.498Z,6.6
2018-12-05T03:44:13.445Z,3.9
2018-12-05T03:45:13.424Z,1.8
2018-12-05T03:46:13.463Z,1.8
2018-12-05T03:47:13.455Z,3.9
2018-12-05T03:48:13.469Z,1.8
2018-12-05T03:49:13.504Z,0
2018-12-05T03:50:13.439Z,1.8
2018-12-05T03:51:13.463Z,0
2018-12-05T03:52:13.552Z,0
2018-12-05T03:53:13.481Z,0
2018-12-05T03:54:13.454Z,3.9
2018-12-05T03:55:13.446Z,3.9
2018-12-05T03:56:13.472Z,1.8
2018-12-05T03:57:13.504Z,0
2018-12-05T03:58:13.429Z,0
2018-12-05T03:59:13.457Z,0
2018-12-05T04:00:13.428Z,0
2018-12-05T04:01:13.451Z,0
2018-12-05T04:02:13.475Z,0
2018-12-05T04:03:13.408Z,0
2018-12-05T04:04:13.444Z,0
2018-12-05T04:05:13.465Z,0
2018-12-05T04:06:13.522Z,0
2018-12-05T04:07:13.428Z,0
2018-12-05T04:08:13.452Z,0
2018-12-05T04:09:13.417Z,0
2018-12-05T04:10:13.445Z,0
2018-12-05T04:11:13.572Z,0
2018-12-05T04:12:13.467Z,0
2018-12-05T04:13:13.454Z,0
2018-12-05T04:14:13.409Z,0
2018-12-05T04:15:13.506Z,0
2018-12-05T04:16:13.424Z,0
2018-12-05T04:17:13.478Z,0
2018-12-05T04:18:14.222Z,0
2018-12-05T04:19:13.423Z,0
2018-12-05T04:20:13.482Z,0
2018-12-05T04:21:13.436Z,0
2018-12-05T04:22:13.440Z,0
2018-12-05T04:23:13.466Z,0
2018-12-05T04:24:13.530Z,0
2018-12-05T04:25:13.412Z,0
2018-12-05T04:26:13.429Z,0
2018-12-05T04:27:13.458Z,0
2018-12-05T04:28:13.624Z,0
2018-12-05T04:29:13.448Z,0
2018-12-05T04:30:13.459Z,0
2018-12-05T04:31:13.482Z,0
2018-12-05T04:32:13.396Z,0
2018-12-05T04:33:13.507Z,0
2018-12-05T04:34:13.462Z,0
2018-12-05T04:35:13.552Z,0
2018-12-05T04:36:13.400Z,0
2018-12-05T04:37:13.499Z,0
2018-12-05T04:38:13.427Z,0
2018-12-05T04:39:13.435Z,0
2018-12-05T04:40:13.429Z,0
2018-12-05T04:41:13.466Z,0
2018-12-05T04:42:13.461Z,0
2018-12-05T04:43:13.515Z,0
2018-12-05T04:44:13.437Z,0
2018-12-05T04:45:13.430Z,0
2018-12-05T04:46:13.492Z,0
2018-12-05T04:47:13.386Z,0
2018-12-05T04:48:13.455Z,0
2018-12-05T04:49:13.509Z,0
2018-12-05T04:50:13.422Z,0
2018-12-05T04:51:13.405Z,0
2018-12-05T04:52:13.412Z,0
2018-12-05T04:53:13.462Z,0
2018-12-05T04:54:13.388Z,0
2018-12-05T04:55:13.482Z,0
2018-12-05T04:56:13.428Z,0
2018-12-05T04:57:13.398Z,0
2018-12-05T04:58:13.392Z,0
2018-12-05T04:59:13.521Z,0
2018-12-05T05:00:13.381Z,0
2018-12-05T05:01:13.407Z,0
2018-12-05T05:02:13.429Z,0
2018-12-05T05:03:13.434Z,0
2018-12-05T05:04:13.465Z,0
2018-12-05T05:05:13.486Z,0
2018-12-05T05:06:13.403Z,0
2018-12-05T05:07:13.402Z,0
2018-12-05T05:08:13.415Z,0
2018-12-05T05:09:13.362Z,0
2018-12-05T05:10:13.508Z,0
2018-12-05T05:11:13.451Z,0
2018-12-05T05:12:13.406Z,0
2018-12-05T05:13:13.445Z,0
2018-12-05T05:14:13.402Z,0
2018-12-05T05:15:13.474Z,0
2018-12-05T05:16:13.365Z,0
2018-12-05T05:17:13.420Z,0
2018-12-05T05:18:13.423Z,0
2018-12-05T05:19:13.434Z,0
2018-12-05T05:20:13.441Z,0
2018-12-05T05:21:13.391Z,0
2018-12-05T05:22:13.400Z,0
2018-12-05T05:23:13.390Z,0
2018-12-05T05:24:13.440Z,0
2018-12-05T05:25:13.461Z,0
2018-12-05T05:26:13.415Z,0
2018-12-05T05:27:13.528Z,0
2018-12-05T05:28:13.564Z,0
2018-12-05T05:29:13.437Z,0
2018-12-05T05:30:13.429Z,0
2018-12-05T05:31:13.431Z,0
2018-12-05T05:32:13.370Z,0
2018-12-05T05:33:13.442Z,0
2018-12-05T05:34:13.377Z,0
2018-12-05T05:35:13.397Z,0
2018-12-05T05:36:13.607Z,0
2018-12-05T05:37:13.413Z,0
2018-12-05T05:38:14.339Z,0
2018-12-05T05:39:13.408Z,0
2018-12-05T05:40:13.404Z,0
2018-12-05T05:41:13.443Z,0
2018-12-05T05:42:13.404Z,0
2018-12-05T05:43:13.483Z,0
2018-12-05T05:44:13.618Z,0
2018-12-05T05:45:13.434Z,0
2018-12-05T05:46:13.398Z,0
2018-12-05T05:47:13.458Z,0
2018-12-05T05:48:13.458Z,0
2018-12-05T05:49:13.650Z,0
2018-12-05T05:50:13.345Z,0
2018-12-05T05:51:13.524Z,0
2018-12-05T05:52:13.421Z,3.9
2018-12-05T05:53:13.430Z,3.9
2018-12-05T05:54:13.401Z,0
2018-12-05T05:55:13.413Z,0
2018-12-05T05:56:13.394Z,0
2018-12-05T05:57:13.396Z,1.8
2018-12-05T05:58:13.452Z,0
2018-12-05T05:59:13.423Z,0
2018-12-05T06:00:13.397Z,0
2018-12-05T06:01:13.424Z,0
2018-12-05T06:02:13.475Z,0
2018-12-05T06:03:13.427Z,0
2018-12-05T06:04:13.420Z,0
2018-12-05T06:05:13.382Z,3.9
2018-12-05T06:06:13.393Z,3.9
2018-12-05T06:07:13.452Z,3.9
2018-12-05T06:08:13.384Z,3.9
2018-12-05T06:09:13.384Z,6.6
2018-12-05T06:10:13.384Z,6.6
2018-12-05T06:11:13.389Z,6.6
2018-12-05T06:12:13.420Z,6.6
2018-12-05T06:13:13.362Z,6.6
2018-12-05T06:14:13.422Z,3.9
2018-12-05T06:15:13.373Z,6.6
2018-12-05T06:16:13.381Z,6.6
2018-12-05T06:17:13.386Z,6.6
2018-12-05T06:18:13.378Z,6.6
2018-12-05T06:19:13.363Z,3.9
2018-12-05T06:20:13.394Z,3.9
2018-12-05T06:21:13.363Z,3.9
2018-12-05T06:22:13.463Z,1.8
2018-12-05T06:23:13.440Z,0
2018-12-05T06:24:13.357Z,0
2018-12-05T06:25:13.427Z,0
2018-12-05T06:26:13.352Z,0
2018-12-05T06:27:13.384Z,0
2018-12-05T06:28:13.375Z,0
2018-12-05T06:29:13.365Z,0
2018-12-05T06:30:13.456Z,0
2018-12-05T06:31:13.413Z,0
2018-12-05T06:32:13.391Z,0
2018-12-05T06:33:13.402Z,0
2018-12-05T06:34:13.360Z,0
2018-12-05T06:35:13.377Z,0
2018-12-05T06:36:13.427Z,0
2018-12-05T06:37:13.399Z,0
2018-12-05T06:38:13.387Z,0
2018-12-05T06:39:13.410Z,1.8
2018-12-05T06:40:13.383Z,1.8
2018-12-05T06:41:13.450Z,0
2018-12-05T06:42:13.349Z,0
2018-12-05T06:43:13.360Z,0
2018-12-05T06:44:13.368Z,0
2018-12-05T06:45:13.426Z,0
2018-12-05T06:46:13.450Z,0
2018-12-05T06:47:13.337Z,0
2018-12-05T06:48:13.463Z,0
2018-12-05T06:49:13.442Z,0
2018-12-05T06:50:13.402Z,0
2018-12-05T06:51:13.395Z,0
2018-12-05T06:52:13.323Z,0
2018-12-05T06:53:13.342Z,0
2018-12-05T06:54:13.419Z,0
2018-12-05T06:55:13.361Z,0
2018-12-05T06:56:13.426Z,1.8
2018-12-05T06:57:13.432Z,0
2018-12-05T06:58:13.360Z,0
2018-12-05T06:59:13.385Z,6.6
2018-12-05T07:00:13.345Z,6.6
2018-12-05T07:01:13.392Z,6.6
2018-12-05T07:02:13.456Z,6.6
2018-12-05T07:03:13.370Z,6.6
2018-12-05T07:04:13.376Z,6.6
2018-12-05T07:05:13.392Z,3.9
2018-12-05T07:06:13.364Z,6.6
2018-12-05T07:07:13.433Z,6.6
2018-12-05T07:08:13.386Z,6.6
2018-12-05T07:09:13.341Z,6.6
2018-12-05T07:10:13.363Z,6.6
2018-12-05T07:11:13.446Z,6.6
2018-12-05T07:12:13.354Z,3.9
2018-12-05T07:13:13.447Z,3.9
2018-12-05T07:14:13.332Z,3.9
2018-12-05T07:15:13.312Z,3.9
2018-12-05T07:16:13.467Z,1.8
2018-12-05T07:17:13.354Z,0
2018-12-05T07:18:13.354Z,0
2018-12-05T07:19:13.348Z,0
2018-12-05T07:20:13.323Z,0
2018-12-05T07:21:13.422Z,0
2018-12-05T07:22:13.436Z,0
2018-12-05T07:23:13.421Z,0
2018-12-05T07:24:13.440Z,0
2018-12-05T07:25:13.349Z,0
2018-12-05T07:26:13.318Z,0
2018-12-05T07:27:13.540Z,0
2018-12-05T07:28:13.386Z,0
2018-12-05T07:29:13.413Z,0
2018-12-05T07:30:13.370Z,0
2018-12-05T07:31:13.305Z,0
2018-12-05T07:32:13.447Z,0
2018-12-05T07:33:13.367Z,0
2018-12-05T07:34:13.377Z,0
2018-12-05T07:35:13.332Z,0
2018-12-05T07:36:13.405Z,0
2018-12-05T07:37:13.330Z,0
2018-12-05T07:38:20.619Z,0
2018-12-05T07:39:13.338Z,0
2018-12-05T07:40:13.542Z,0
2018-12-05T07:41:13.345Z,0
2018-12-05T07:42:13.318Z,0
2018-12-05T07:43:13.330Z,6.6
2018-12-05T07:44:13.349Z,6.6
2018-12-05T07:45:13.388Z,6.6
2018-12-05T07:46:13.336Z,3.9
2018-12-05T07:47:13.372Z,3.9
2018-12-05T07:48:13.373Z,3.9
2018-12-05T07:49:13.372Z,6.6
2018-12-05T07:50:13.310Z,3.9
2018-12-05T07:51:13.362Z,0
2018-12-05T07:52:13.367Z,3.9
2018-12-05T07:53:13.311Z,3.9
2018-12-05T07:54:13.332Z,1.8
2018-12-05T07:55:13.437Z,0
2018-12-05T07:56:13.330Z,0
2018-12-05T07:57:13.413Z,0
2018-12-05T07:58:13.384Z,0
2018-12-05T07:59:13.338Z,0
2018-12-05T08:00:13.339Z,0
2018-12-05T08:01:13.339Z,0
2018-12-05T08:02:13.318Z,0
2018-12-05T08:03:13.342Z,0
2018-12-05T08:04:13.407Z,0
2018-12-05T08:05:13.320Z,0
2018-12-05T08:06:13.334Z,0
2018-12-05T08:07:13.317Z,0
2018-12-05T08:08:13.299Z,0
2018-12-05T08:09:13.372Z,0
2018-12-05T08:10:13.362Z,0
2018-12-05T08:11:13.336Z,0
2018-12-05T08:12:13.326Z,0
2018-12-05T08:13:13.419Z,0
2018-12-05T08:14:13.370Z,0
2018-12-05T08:15:13.362Z,0
2018-12-05T08:16:13.397Z,0
2018-12-05T08:17:13.351Z,0
2018-12-05T08:18:13.385Z,0
2018-12-05T08:19:13.411Z,0
2018-12-05T08:20:13.366Z,0
2018-12-05T08:21:13.366Z,0
2018-12-05T08:22:13.302Z,0
2018-12-05T08:23:13.409Z,0
2018-12-05T08:24:13.297Z,0
2018-12-05T08:25:13.317Z,0
2018-12-05T08:26:13.335Z,0
2018-12-05T08:27:13.302Z,0
2018-12-05T08:28:13.331Z,0
2018-12-05T08:29:13.307Z,0
2018-12-05T08:30:13.336Z,0
2018-12-05T08:31:13.321Z,0
2018-12-05T08:32:13.320Z,0
2018-12-05T08:33:13.312Z,0
2018-12-05T08:34:13.367Z,0
2018-12-05T08:35:13.350Z,0
2018-12-05T08:36:13.301Z,0
2018-12-05T08:37:13.351Z,0
2018-12-05T08:38:13.460Z,0
2018-12-05T08:39:13.321Z,0
2018-12-05T08:40:13.322Z,0
2018-12-05T08:41:13.326Z,0
2018-12-05T08:42:13.323Z,0
2018-12-05T08:43:13.370Z,0
2018-12-05T08:44:13.395Z,0
2018-12-05T08:45:13.352Z,0
2018-12-05T08:46:13.324Z,0
2018-12-05T08:47:13.304Z,1.8
2018-12-05T08:48:13.299Z,1.8
2018-12-05T08:49:13.398Z,1.8
2018-12-05T08:50:13.405Z,3.9
2018-12-05T08:51:13.354Z,0
2018-12-05T08:52:13.324Z,0
2018-12-05T08:53:13.352Z,0
2018-12-05T08:54:13.394Z,6.6
2018-12-05T08:55:13.337Z,3.9
2018-12-05T08:56:13.306Z,1.8
2018-12-05T08:57:13.649Z,0
2018-12-05T08:58:13.277Z,3.9
2018-12-05T08:59:13.342Z,6.6
2018-12-05T09:00:13.306Z,6.6
2018-12-05T09:01:13.324Z,1.8
2018-12-05T09:02:13.398Z,0
2018-12-05T09:03:13.291Z,3.9
2018-12-05T09:04:13.294Z,3.9
2018-12-05T09:05:13.344Z,6.6
2018-12-05T09:06:13.300Z,9.5
2018-12-05T09:07:13.404Z,3.9
2018-12-05T09:08:13.346Z,3.9
2018-12-05T09:09:13.296Z,6.6
2018-12-05T09:10:13.301Z,3.9
2018-12-05T09:11:13.404Z,3.9
2018-12-05T09:12:13.333Z,3.9
2018-12-05T09:13:13.376Z,1.8
2018-12-05T09:14:13.315Z,3.9
2018-12-05T09:15:13.298Z,6.6
2018-12-05T09:16:13.359Z,1.8
2018-12-05T09:17:13.356Z,0
2018-12-05T09:18:13.366Z,0
2018-12-05T09:19:13.356Z,0
2018-12-05T09:20:13.266Z,0
2018-12-05T09:21:14.617Z,3.9
2018-12-05T09:22:13.395Z,3.9
2018-12-05T09:23:13.310Z,3.9
2018-12-05T09:24:13.335Z,3.9
2018-12-05T09:25:13.282Z,6.6
2018-12-05T09:26:13.369Z,6.6
2018-12-05T09:27:13.492Z,6.6
2018-12-05T09:28:13.300Z,3.9
2018-12-05T09:29:13.358Z,3.9
2018-12-05T09:30:13.278Z,1.8
2018-12-05T09:31:13.415Z,1.8
2018-12-05T09:32:13.319Z,1.8
2018-12-05T09:33:13.348Z,1.8
2018-12-05T09:34:13.337Z,1.8
2018-12-05T09:35:13.290Z,1.8
2018-12-05T09:36:13.445Z,3.9
2018-12-05T09:37:13.318Z,3.9
2018-12-05T09:38:13.405Z,3.9
2018-12-05T09:39:13.328Z,0
2018-12-05T09:40:13.345Z,0
2018-12-05T09:41:13.287Z,0
2018-12-05T09:42:13.380Z,0
2018-12-05T09:43:13.313Z,0
2018-12-05T09:44:13.399Z,0
2018-12-05T09:45:13.330Z,0
2018-12-05T09:46:13.379Z,0
2018-12-05T09:47:17.124Z,0
2018-12-05T09:48:13.328Z,0
2018-12-05T09:49:13.302Z,0
2018-12-05T09:50:13.358Z,0
2018-12-05T09:51:13.379Z,0
2018-12-05T09:52:13.306Z,0
2018-12-05T09:53:13.320Z,0
2018-12-05T09:54:13.320Z,0
2018-12-05T09:55:13.312Z,0
2018-12-05T09:56:13.304Z,0
2018-12-05T09:57:13.428Z,0
2018-12-05T09:58:13.453Z,0
2018-12-05T09:59:13.354Z,0
2018-12-05T10:00:13.384Z,0
2018-12-05T10:01:13.359Z,0
2018-12-05T10:02:13.319Z,0
2018-12-05T10:03:13.260Z,0
2018-12-05T10:04:14.421Z,0
2018-12-05T10:05:13.382Z,0
2018-12-05T10:06:13.361Z,0
2018-12-05T10:07:13.299Z,0
2018-12-05T10:08:13.341Z,0
2018-12-05T10:09:13.267Z,0
2018-12-05T10:10:13.322Z,0
2018-12-05T10:11:13.395Z,1.8
2018-12-05T10:12:13.300Z,0
2018-12-05T10:13:13.288Z,0
2018-12-05T10:14:13.269Z,0
2018-12-05T10:15:13.356Z,0
2018-12-05T10:16:13.439Z,0
2018-12-05T10:17:13.310Z,0
2018-12-05T10:18:13.315Z,0
2018-12-05T10:19:13.328Z,0
2018-12-05T10:20:13.298Z,0
2018-12-05T10:21:13.409Z,0
2018-12-05T10:22:13.351Z,0
2018-12-05T10:23:13.392Z,0
2018-12-05T10:24:13.362Z,1.8
2018-12-05T10:25:13.275Z,1.8
2018-12-05T10:26:13.423Z,1.8
2018-12-05T10:27:13.311Z,0
2018-12-05T10:28:13.328Z,1.8
2018-12-05T10:29:13.344Z,0
2018-12-05T10:30:13.293Z,0
2018-12-05T10:31:13.370Z,0
2018-12-05T10:32:13.333Z,0
2018-12-05T10:33:13.398Z,0
2018-12-05T10:34:13.355Z,0
2018-12-05T10:35:13.347Z,1.8
2018-12-05T10:36:13.312Z,6.6
2018-12-05T10:37:13.378Z,3.9
2018-12-05T10:38:13.310Z,6.6
2018-12-05T10:39:13.351Z,9.5
2018-12-05T10:40:13.360Z,9.5
2018-12-05T10:41:13.300Z,3.9
2018-12-05T10:42:13.389Z,3.9
2018-12-05T10:43:13.325Z,9.5
2018-12-05T10:44:13.315Z,9.5
2018-12-05T10:45:13.395Z,1.8
2018-12-05T10:46:13.389Z,1.8
2018-12-05T10:47:13.282Z,3.9
2018-12-05T10:48:13.359Z,6.6
2018-12-05T10:49:13.297Z,3.9
2018-12-05T10:50:13.340Z,6.6
2018-12-05T10:51:13.435Z,3.9
2018-12-05T10:52:13.329Z,6.6
2018-12-05T10:53:13.362Z,6.6
2018-12-05T10:54:13.332Z,3.9
2018-12-05T10:55:13.352Z,3.9
2018-12-05T10:56:13.330Z,3.9
2018-12-05T10:57:13.331Z,6.6
2018-12-05T10:58:13.348Z,6.6
2018-12-05T10:59:13.355Z,6.6
2018-12-05T11:00:13.386Z,3.9
2018-12-05T11:01:13.359Z,6.6
2018-12-05T11:02:13.364Z,1.8
2018-12-05T11:03:13.360Z,6.6
2018-12-05T11:04:13.360Z,6.6
2018-12-05T11:05:13.323Z,3.9
2018-12-05T11:06:13.340Z,3.9
2018-12-05T11:07:13.353Z,6.6
2018-12-05T11:08:13.322Z,1.8
2018-12-05T11:09:13.361Z,1.8
2018-12-05T11:10:13.420Z,0
2018-12-05T11:11:13.324Z,1.8
2018-12-05T11:12:13.315Z,3.9
2018-12-05T11:13:13.322Z,6.6
2018-12-05T11:14:13.364Z,1.8
2018-12-05T11:15:13.301Z,1.8
2018-12-05T11:16:13.324Z,3.9
2018-12-05T11:17:13.323Z,6.6
2018-12-05T11:18:13.335Z,6.6
2018-12-05T11:19:13.401Z,6.6
2018-12-05T11:20:13.307Z,3.9
2018-12-05T11:21:13.313Z,1.8
2018-12-05T11:22:13.330Z,6.6
2018-12-05T11:23:13.318Z,3.9
2018-12-05T11:24:13.387Z,3.9
2018-12-05T11:25:13.339Z,0
2018-12-05T11:26:13.319Z,1.8
2018-12-05T11:27:13.317Z,3.9
2018-12-05T11:28:13.318Z,3.9
2018-12-05T11:29:13.293Z,3.9
2018-12-05T11:30:13.350Z,6.6
2018-12-05T11:31:13.355Z,6.6
2018-12-05T11:32:13.355Z,6.6
2018-12-05T11:33:13.331Z,3.9
2018-12-05T11:34:13.296Z,1.8
2018-12-05T11:35:13.392Z,0
2018-12-05T11:36:13.327Z,3.9
2018-12-05T11:37:13.324Z,0
2018-12-05T11:38:13.304Z,3.9
2018-12-05T11:39:13.303Z,3.9
2018-12-05T11:40:13.366Z,3.9
2018-12-05T11:41:13.286Z,3.9
2018-12-05T11:42:13.291Z,6.6
2018-12-05T11:43:13.387Z,6.6
2018-12-05T11:44:13.301Z,1.8
2018-12-05T11:45:13.397Z,3.9
2018-12-05T11:46:13.318Z,3.9
2018-12-05T11:47:13.292Z,0
2018-12-05T11:48:13.344Z,1.8
2018-12-05T11:49:13.315Z,3.9
2018-12-05T11:50:13.395Z,1.8
2018-12-05T11:51:13.350Z,6.6
2018-12-05T11:52:13.368Z,6.6
2018-12-05T11:53:13.274Z,6.6
2018-12-05T11:54:13.328Z,9.5
2018-12-05T11:55:13.313Z,9.5
2018-12-05T11:56:13.328Z,3.9
2018-12-05T11:57:13.433Z,3.9
2018-12-05T11:58:13.298Z,1.8
2018-12-05T11:59:13.328Z,3.9
2018-12-05T12:00:13.327Z,1.8
2018-12-05T12:01:13.309Z,3.9
2018-12-05T12:02:13.459Z,3.9
2018-12-05T12:03:13.320Z,6.6
2018-12-05T12:04:13.303Z,1.8
2018-12-05T12:05:13.384Z,0
2018-12-05T12:06:13.345Z,1.8
2018-12-05T12:07:13.322Z,1.8
2018-12-05T12:08:13.369Z,3.9
2018-12-05T12:09:13.358Z,1.8
2018-12-05T12:10:13.317Z,1.8
2018-12-05T12:11:13.360Z,3.9
2018-12-05T12:12:13.371Z,6.6
2018-12-05T12:13:13.327Z,6.6
2018-12-05T12:14:13.376Z,9.5
2018-12-05T12:15:13.341Z,9.5
2018-12-05T12:16:13.427Z,12.4
2018-12-05T12:17:13.294Z,9.5
2018-12-05T12:18:13.336Z,9.5
2018-12-05T12:19:13.284Z,6.6
2018-12-05T12:20:13.344Z,6.6
2018-12-05T12:21:13.407Z,9.5
2018-12-05T12:22:13.336Z,3.9
2018-12-05T12:23:13.343Z,1.8
2018-12-05T12:24:13.413Z,3.9
2018-12-05T12:25:13.315Z,3.9
2018-12-05T12:26:13.425Z,3.9
2018-12-05T12:27:13.325Z,3.9
2018-12-05T12:28:13.353Z,1.8
2018-12-05T12:29:13.345Z,0
2018-12-05T12:30:17.208Z,1.8
2018-12-05T12:31:13.302Z,0
2018-12-05T12:32:13.330Z,0
2018-12-05T12:33:13.393Z,0
2018-12-05T12:34:13.321Z,0
2018-12-05T12:35:13.300Z,0
2018-12-05T12:36:13.376Z,0
2018-12-05T12:37:13.351Z,0
2018-12-05T12:38:13.340Z,0
2018-12-05T12:39:13.352Z,0
2018-12-05T12:40:13.300Z,0
2018-12-05T12:41:13.349Z,0
2018-12-05T12:42:13.288Z,0
2018-12-05T12:43:13.386Z,0
2018-12-05T12:44:13.348Z,0
2018-12-05T12:45:13.297Z,0
2018-12-05T12:46:13.302Z,0
2018-12-05T12:47:13.269Z,0
2018-12-05T12:48:13.389Z,0
2018-12-05T12:49:13.317Z,0
2018-12-05T12:50:13.417Z,0
2018-12-05T12:51:13.296Z,0
2018-12-05T12:52:13.278Z,6.6
2018-12-05T12:53:13.397Z,3.9
2018-12-05T12:54:13.342Z,3.9
2018-12-05T12:55:13.291Z,1.8
2018-12-05T12:56:13.388Z,6.6
2018-12-05T12:57:13.310Z,3.9
2018-12-05T12:58:13.393Z,1.8
2018-12-05T12:59:13.335Z,3.9
2018-12-05T13:00:13.303Z,0
2018-12-05T13:01:13.344Z,0
2018-12-05T13:02:13.268Z,1.8
2018-12-05T13:03:13.368Z,3.9
2018-12-05T13:04:13.312Z,3.9
2018-12-05T13:05:13.359Z,3.9
2018-12-05T13:06:13.326Z,3.9
2018-12-05T13:07:13.414Z,1.8
2018-12-05T13:08:13.327Z,1.8
2018-12-05T13:09:13.367Z,1.8
2018-12-05T13:10:13.334Z,1.8
2018-12-05T13:11:13.287Z,1.8
2018-12-05T13:12:13.365Z,6.6
2018-12-05T13:13:13.344Z,3.9
2018-12-05T13:14:13.279Z,1.8
2018-12-05T13:15:13.301Z,3.9
2018-12-05T13:16:13.306Z,3.9
2018-12-05T13:17:13.343Z,0
2018-12-05T13:18:13.333Z,0
2018-12-05T13:19:13.263Z,1.8
2018-12-05T13:20:13.371Z,1.8
2018-12-05T13:21:13.323Z,3.9
2018-12-05T13:22:13.286Z,1.8
2018-12-05T13:23:13.299Z,0
2018-12-05T13:24:13.380Z,1.8
2018-12-05T13:25:13.379Z,3.9
2018-12-05T13:26:13.319Z,3.9
2018-12-05T13:27:13.310Z,6.6
2018-12-05T13:28:13.673Z,9.5
2018-12-05T13:29:13.382Z,6.6
2018-12-05T13:30:13.763Z,1.8
2018-12-05T13:31:13.308Z,1.8
2018-12-05T13:32:13.272Z,3.9
2018-12-05T13:33:13.326Z,1.8
2018-12-05T13:34:13.358Z,3.9
2018-12-05T13:35:13.350Z,3.9
2018-12-05T13:36:13.274Z,3.9
2018-12-05T13:37:13.369Z,3.9
2018-12-05T13:38:13.307Z,0
2018-12-05T13:39:13.361Z,0
2018-12-05T13:40:14.655Z,1.8
2018-12-05T13:41:13.688Z,9.5
2018-12-05T13:42:13.457Z,6.6
2018-12-05T13:43:13.458Z,6.6
2018-12-05T13:44:15.423Z,12.4
2018-12-05T13:45:13.511Z,12.4
2018-12-05T13:46:13.453Z,9.5
2018-12-05T13:47:13.401Z,9.5
2018-12-05T13:48:13.458Z,9.5
2018-12-05T13:49:13.387Z,3.9
2018-12-05T13:50:13.383Z,1.8
2018-12-05T13:51:13.374Z,6.6
2018-12-05T13:52:13.450Z,9.5
2018-12-05T13:53:13.324Z,3.9
2018-12-05T13:54:13.354Z,9.5
2018-12-05T13:55:13.506Z,9.5
2018-12-05T13:56:13.475Z,9.5
2018-12-05T13:57:16.171Z,9.5
2018-12-05T13:58:13.422Z,9.5
2018-12-05T13:59:13.377Z,9.5
2018-12-05T14:00:13.381Z,6.6
2018-12-05T14:01:13.406Z,9.5
2018-12-05T14:02:13.403Z,9.5
2018-12-05T14:03:13.554Z,6.6
2018-12-05T14:04:13.361Z,6.6
2018-12-05T14:05:13.463Z,6.6
2018-12-05T14:06:13.343Z,9.5
2018-12-05T14:07:13.286Z,6.6
2018-12-05T14:08:13.326Z,6.6
2018-12-05T14:09:13.261Z,6.6
2018-12-05T14:10:14.598Z,12.4
2018-12-05T14:11:13.410Z,9.5
2018-12-05T14:12:13.505Z,12.4
2018-12-05T14:13:13.382Z,12.4
2018-12-05T14:14:13.397Z,15.4
2018-12-05T14:15:13.384Z,18.3